sensor_id;sensor_type;location;lat;lon;timestamp;pressure;altitude;pressure_sealevel;temperature;humidity
68476;BME280;55464;48.266;14.188;2023-04-29T00:01:37;97455.00;;;11.06;84.43
68476;BME280;55464;48.266;14.188;2023-04-29T00:04:02;97453.81;;;11.07;84.45
68476;BME280;55464;48.266;14.188;2023-04-29T00:06:28;97456.22;;;11.09;84.66
68476;BME280;55464;48.266;14.188;2023-04-29T00:08:54;97448.31;;;11.07;84.83
68476;BME280;55464;48.266;14.188;2023-04-29T00:11:19;97442.78;;;11.07;84.90
68476;BME280;55464;48.266;14.188;2023-04-29T00:13:45;97439.69;;;11.09;85.00
68476;BME280;55464;48.266;14.188;2023-04-29T00:16:10;97438.16;;;11.11;84.61
68476;BME280;55464;48.266;14.188;2023-04-29T00:18:36;97436.22;;;11.12;84.84
68476;BME280;55464;48.266;14.188;2023-04-29T00:21:02;97440.19;;;11.14;84.75
68476;BME280;55464;48.266;14.188;2023-04-29T00:23:31;97410.41;;;11.04;84.84
68476;BME280;55464;48.266;14.188;2023-04-29T00:25:56;97438.06;;;11.24;84.78
68476;BME280;55464;48.266;14.188;2023-04-29T00:28:21;97424.28;;;11.24;83.94
68476;BME280;55464;48.266;14.188;2023-04-29T00:30:47;97434.31;;;11.32;83.76
68476;BME280;55464;48.266;14.188;2023-04-29T00:33:12;97434.16;;;11.25;83.54
68476;BME280;55464;48.266;14.188;2023-04-29T00:35:37;97440.03;;;11.23;84.04
68476;BME280;55464;48.266;14.188;2023-04-29T00:38:03;97436.03;;;11.21;83.94
68476;BME280;55464;48.266;14.188;2023-04-29T00:40:28;97439.94;;;11.20;84.04
68476;BME280;55464;48.266;14.188;2023-04-29T00:42:54;97438.78;;;11.21;84.20
68476;BME280;55464;48.266;14.188;2023-04-29T00:45:19;97440.38;;;11.22;83.87
68476;BME280;55464;48.266;14.188;2023-04-29T00:47:44;97431.66;;;11.20;83.77
68476;BME280;55464;48.266;14.188;2023-04-29T00:50:10;97442.16;;;11.30;83.40
68476;BME280;55464;48.266;14.188;2023-04-29T00:52:36;97437.25;;;11.23;83.09
68476;BME280;55464;48.266;14.188;2023-04-29T00:55:05;97437.88;;;11.16;83.63
68476;BME280;55464;48.266;14.188;2023-04-29T00:57:32;97428.47;;;11.18;83.90
68476;BME280;55464;48.266;14.188;2023-04-29T00:59:59;97432.91;;;11.22;83.82
68476;BME280;55464;48.266;14.188;2023-04-29T01:02:24;97426.50;;;11.18;83.77
68476;BME280;55464;48.266;14.188;2023-04-29T01:04:51;97432.00;;;11.18;83.48
68476;BME280;55464;48.266;14.188;2023-04-29T01:10:26;97414.50;;;11.10;83.88
68476;BME280;55464;48.266;14.188;2023-04-29T01:13:16;97418.50;;;11.13;83.94
68476;BME280;55464;48.266;14.188;2023-04-29T01:15:47;97410.47;;;11.08;83.74
68476;BME280;55464;48.266;14.188;2023-04-29T01:18:24;97414.78;;;11.05;84.46
68476;BME280;55464;48.266;14.188;2023-04-29T01:20:50;97416.81;;;11.08;84.05
68476;BME280;55464;48.266;14.188;2023-04-29T01:23:16;97421.16;;;11.09;84.13
68476;BME280;55464;48.266;14.188;2023-04-29T01:25:41;97415.56;;;11.06;83.94
68476;BME280;55464;48.266;14.188;2023-04-29T01:34:10;97429.63;;;11.01;83.47
68476;BME280;55464;48.266;14.188;2023-04-29T01:37:09;97421.78;;;10.87;83.84
68476;BME280;55464;48.266;14.188;2023-04-29T01:39:44;97427.22;;;10.83;84.38
68476;BME280;55464;48.266;14.188;2023-04-29T01:42:43;97423.03;;;10.89;84.38
68476;BME280;55464;48.266;14.188;2023-04-29T01:45:11;97414.94;;;10.81;84.58
68476;BME280;55464;48.266;14.188;2023-04-29T01:47:40;97421.97;;;10.78;84.79
68476;BME280;55464;48.266;14.188;2023-04-29T01:50:06;97418.06;;;10.79;84.84
68476;BME280;55464;48.266;14.188;2023-04-29T01:52:31;97418.75;;;10.76;84.95
68476;BME280;55464;48.266;14.188;2023-04-29T01:54:57;97416.00;;;10.76;85.03
68476;BME280;55464;48.266;14.188;2023-04-29T01:57:22;97409.88;;;10.67;84.73
68476;BME280;55464;48.266;14.188;2023-04-29T01:59:48;97416.34;;;10.58;84.94
68476;BME280;55464;48.266;14.188;2023-04-29T02:02:13;97423.56;;;10.63;85.60
68476;BME280;55464;48.266;14.188;2023-04-29T02:04:39;97406.56;;;10.61;85.38
68476;BME280;55464;48.266;14.188;2023-04-29T02:07:05;97412.88;;;10.62;85.29
68476;BME280;55464;48.266;14.188;2023-04-29T02:09:31;97417.44;;;10.70;85.01
68476;BME280;55464;48.266;14.188;2023-04-29T02:11:56;97428.63;;;10.61;85.60
68476;BME280;55464;48.266;14.188;2023-04-29T02:14:22;97434.56;;;10.63;85.12
68476;BME280;55464;48.266;14.188;2023-04-29T02:16:47;97413.94;;;10.57;85.49
68476;BME280;55464;48.266;14.188;2023-04-29T02:19:12;97431.47;;;10.65;85.86
68476;BME280;55464;48.266;14.188;2023-04-29T02:21:38;97429.06;;;10.63;85.65
68476;BME280;55464;48.266;14.188;2023-04-29T02:24:07;97418.31;;;10.58;84.95
68476;BME280;55464;48.266;14.188;2023-04-29T02:26:32;97434.94;;;10.62;85.84
68476;BME280;55464;48.266;14.188;2023-04-29T02:28:58;97438.56;;;10.66;85.91
68476;BME280;55464;48.266;14.188;2023-04-29T02:31:24;97428.38;;;10.66;85.81
68476;BME280;55464;48.266;14.188;2023-04-29T02:33:49;97426.22;;;10.59;85.41
68476;BME280;55464;48.266;14.188;2023-04-29T02:36:15;97422.56;;;10.55;85.99
68476;BME280;55464;48.266;14.188;2023-04-29T02:38:41;97423.81;;;10.58;86.12
68476;BME280;55464;48.266;14.188;2023-04-29T02:41:07;97432.53;;;10.60;86.14
68476;BME280;55464;48.266;14.188;2023-04-29T02:43:32;97425.97;;;10.65;85.72
68476;BME280;55464;48.266;14.188;2023-04-29T02:45:58;97420.09;;;10.66;85.75
68476;BME280;55464;48.266;14.188;2023-04-29T02:48:24;97411.56;;;10.55;85.58
68476;BME280;55464;48.266;14.188;2023-04-29T02:50:49;97417.75;;;10.52;85.46
68476;BME280;55464;48.266;14.188;2023-04-29T02:53:15;97427.16;;;10.51;85.81
68476;BME280;55464;48.266;14.188;2023-04-29T02:55:40;97429.03;;;10.47;85.65
68476;BME280;55464;48.266;14.188;2023-04-29T02:58:06;97429.84;;;10.48;85.39
68476;BME280;55464;48.266;14.188;2023-04-29T03:00:31;97434.56;;;10.47;85.46
68476;BME280;55464;48.266;14.188;2023-04-29T03:02:56;97432.50;;;10.44;85.68
68476;BME280;55464;48.266;14.188;2023-04-29T03:05:22;97427.50;;;10.34;85.96
68476;BME280;55464;48.266;14.188;2023-04-29T03:07:47;97430.91;;;10.43;85.91
68476;BME280;55464;48.266;14.188;2023-04-29T03:10:13;97429.84;;;10.48;85.92
68476;BME280;55464;48.266;14.188;2023-04-29T03:12:38;97421.47;;;10.44;86.05
68476;BME280;55464;48.266;14.188;2023-04-29T03:15:05;97428.25;;;10.47;86.34
68476;BME280;55464;48.266;14.188;2023-04-29T03:17:31;97419.06;;;10.43;86.20
68476;BME280;55464;48.266;14.188;2023-04-29T03:19:58;97425.13;;;10.48;85.71
68476;BME280;55464;48.266;14.188;2023-04-29T03:22:23;97420.44;;;10.49;85.84
68476;BME280;55464;48.266;14.188;2023-04-29T03:24:48;97418.91;;;10.51;85.34
68476;BME280;55464;48.266;14.188;2023-04-29T03:27:14;97418.91;;;10.51;85.45
68476;BME280;55464;48.266;14.188;2023-04-29T03:29:39;97415.00;;;10.52;85.07
68476;BME280;55464;48.266;14.188;2023-04-29T03:32:05;97421.91;;;10.46;84.99
68476;BME280;55464;48.266;14.188;2023-04-29T03:34:30;97409.75;;;10.47;84.67
68476;BME280;55464;48.266;14.188;2023-04-29T03:36:56;97389.47;;;10.39;84.59
68476;BME280;55464;48.266;14.188;2023-04-29T03:39:21;97401.75;;;10.42;84.57
68476;BME280;55464;48.266;14.188;2023-04-29T03:41:47;97407.00;;;10.47;84.62
68476;BME280;55464;48.266;14.188;2023-04-29T03:44:12;97396.50;;;10.37;84.57
68476;BME280;55464;48.266;14.188;2023-04-29T03:46:38;97400.97;;;10.42;84.59
68476;BME280;55464;48.266;14.188;2023-04-29T03:49:03;97408.66;;;10.36;84.78
68476;BME280;55464;48.266;14.188;2023-04-29T03:51:29;97422.06;;;10.37;85.07
68476;BME280;55464;48.266;14.188;2023-04-29T03:53:54;97417.47;;;10.42;84.99
68476;BME280;55464;48.266;14.188;2023-04-29T03:56:22;97421.91;;;10.46;84.99
68476;BME280;55464;48.266;14.188;2023-04-29T03:58:47;97419.50;;;10.45;84.80
68476;BME280;55464;48.266;14.188;2023-04-29T04:01:13;97419.06;;;10.43;85.13
68476;BME280;55464;48.266;14.188;2023-04-29T04:03:39;97415.53;;;10.42;85.13
68476;BME280;55464;48.266;14.188;2023-04-29T04:06:05;97419.88;;;10.43;85.13
68476;BME280;55464;48.266;14.188;2023-04-29T04:08:30;97418.72;;;10.44;85.21
68476;BME280;55464;48.266;14.188;2023-04-29T04:10:56;97420.69;;;10.44;85.20
68476;BME280;55464;48.266;14.188;2023-04-29T04:13:30;97414.81;;;10.45;85.04
68476;BME280;55464;48.266;14.188;2023-04-29T04:15:55;97416.16;;;10.51;85.17
68476;BME280;55464;48.266;14.188;2023-04-29T04:18:20;97417.75;;;10.52;85.17
68476;BME280;55464;48.266;14.188;2023-04-29T04:20:46;97426.38;;;10.51;85.02
68476;BME280;55464;48.266;14.188;2023-04-29T04:23:12;97411.72;;;10.47;84.83
68476;BME280;55464;48.266;14.188;2023-04-29T04:25:37;97413.22;;;10.44;84.97
68476;BME280;55464;48.266;14.188;2023-04-29T04:28:03;97431.44;;;10.49;85.10
68476;BME280;55464;48.266;14.188;2023-04-29T04:30:29;97425.59;;;10.50;85.01
68476;BME280;55464;48.266;14.188;2023-04-29T04:32:54;97429.94;;;10.51;85.11
68476;BME280;55464;48.266;14.188;2023-04-29T04:35:19;97424.41;;;10.51;85.39
68476;BME280;55464;48.266;14.188;2023-04-29T04:37:45;97417.31;;;10.50;85.24
68476;BME280;55464;48.266;14.188;2023-04-29T04:40:11;97424.50;;;10.55;85.20
68476;BME280;55464;48.266;14.188;2023-04-29T04:42:38;97424.50;;;10.55;85.30
68476;BME280;55464;48.266;14.188;2023-04-29T04:45:04;97424.50;;;10.55;85.18
68476;BME280;55464;48.266;14.188;2023-04-29T04:47:29;97424.16;;;10.56;85.48
68476;BME280;55464;48.266;14.188;2023-04-29T04:49:55;97420.97;;;10.54;85.43
68476;BME280;55464;48.266;14.188;2023-04-29T04:52:20;97419.34;;;10.53;85.75
68476;BME280;55464;48.266;14.188;2023-04-29T04:54:46;97419.44;;;10.57;85.35
68476;BME280;55464;48.266;14.188;2023-04-29T04:57:12;97415.81;;;10.53;85.46
68476;BME280;55464;48.266;14.188;2023-04-29T04:59:37;97416.69;;;10.57;85.35
68476;BME280;55464;48.266;14.188;2023-04-29T05:02:02;97428.97;;;10.59;85.37
68476;BME280;55464;48.266;14.188;2023-04-29T05:04:28;97428.63;;;10.61;85.82
68476;BME280;55464;48.266;14.188;2023-04-29T05:06:53;97403.38;;;10.43;85.75
68476;BME280;55464;48.266;14.188;2023-04-29T05:09:19;97434.50;;;10.59;85.91
68476;BME280;55464;48.266;14.188;2023-04-29T05:11:44;97429.41;;;10.62;86.24
68476;BME280;55464;48.266;14.188;2023-04-29T05:14:10;97443.38;;;10.69;85.88
68476;BME280;55464;48.266;14.188;2023-04-29T05:16:36;97443.28;;;10.65;86.06
68476;BME280;55464;48.266;14.188;2023-04-29T05:19:01;97436.44;;;10.59;86.12
68476;BME280;55464;48.266;14.188;2023-04-29T05:21:26;97441.81;;;10.68;86.20
68476;BME280;55464;48.266;14.188;2023-04-29T05:23:52;97443.38;;;10.69;86.01
68476;BME280;55464;48.266;14.188;2023-04-29T05:26:17;97437.78;;;10.65;86.20
68476;BME280;55464;48.266;14.188;2023-04-29T05:28:43;97443.13;;;10.74;86.35
68476;BME280;55464;48.266;14.188;2023-04-29T05:31:08;97442.44;;;10.77;86.12
68476;BME280;55464;48.266;14.188;2023-04-29T05:33:33;97437.78;;;10.81;86.42
68476;BME280;55464;48.266;14.188;2023-04-29T05:35:59;97442.59;;;10.84;86.27
68476;BME280;55464;48.266;14.188;2023-04-29T05:38:25;97439.06;;;10.84;86.48
68476;BME280;55464;48.266;14.188;2023-04-29T05:40:56;97446.25;;;10.88;86.20
68476;BME280;55464;48.266;14.188;2023-04-29T05:43:22;97453.91;;;10.95;86.14
68476;BME280;55464;48.266;14.188;2023-04-29T05:45:48;97454.34;;;10.97;86.29
68476;BME280;55464;48.266;14.188;2023-04-29T05:48:15;97451.22;;;10.98;86.24
68476;BME280;55464;48.266;14.188;2023-04-29T05:50:40;97455.59;;;11.00;86.35
68476;BME280;55464;48.266;14.188;2023-04-29T05:53:06;97450.44;;;10.98;86.48
68476;BME280;55464;48.266;14.188;2023-04-29T05:55:32;97448.03;;;10.96;86.28
68476;BME280;55464;48.266;14.188;2023-04-29T05:57:57;97457.75;;;11.06;86.39
68476;BME280;55464;48.266;14.188;2023-04-29T06:00:22;97466.03;;;11.06;86.38
68476;BME280;55464;48.266;14.188;2023-04-29T06:02:48;97468.41;;;11.08;86.25
68476;BME280;55464;48.266;14.188;2023-04-29T06:05:13;97471.06;;;11.04;86.66
68476;BME280;55464;48.266;14.188;2023-04-29T06:07:40;97482.19;;;11.08;86.70
68476;BME280;55464;48.266;14.188;2023-04-29T06:10:07;97461.13;;;11.00;86.80
68476;BME280;55464;48.266;14.188;2023-04-29T06:12:32;97465.56;;;11.04;87.00
68476;BME280;55464;48.266;14.188;2023-04-29T06:14:58;97468.78;;;11.06;87.07
68476;BME280;55464;48.266;14.188;2023-04-29T06:17:23;97484.78;;;11.16;87.13
68476;BME280;55464;48.266;14.188;2023-04-29T06:19:49;97476.97;;;11.19;86.99
68476;BME280;55464;48.266;14.188;2023-04-29T06:22:14;97488.09;;;11.22;86.92
68476;BME280;55464;48.266;14.188;2023-04-29T06:24:40;97496.44;;;11.26;87.05
68476;BME280;55464;48.266;14.188;2023-04-29T06:27:05;97485.94;;;11.31;86.87
68476;BME280;55464;48.266;14.188;2023-04-29T06:29:31;97491.38;;;11.28;86.94
68476;BME280;55464;48.266;14.188;2023-04-29T06:31:56;97501.06;;;11.38;86.72
68476;BME280;55464;48.266;14.188;2023-04-29T06:34:22;97498.69;;;11.36;86.39
68476;BME280;55464;48.266;14.188;2023-04-29T06:36:47;97499.47;;;11.37;86.18
68476;BME280;55464;48.266;14.188;2023-04-29T06:39:12;97509.81;;;11.40;86.31
68476;BME280;55464;48.266;14.188;2023-04-29T06:41:38;97503.91;;;11.41;86.32
68476;BME280;55464;48.266;14.188;2023-04-29T06:44:05;97513.44;;;11.44;86.81
68476;BME280;55464;48.266;14.188;2023-04-29T06:46:30;97507.56;;;11.45;86.80
68476;BME280;55464;48.266;14.188;2023-04-29T06:48:56;97498.94;;;11.47;86.73
68476;BME280;55464;48.266;14.188;2023-04-29T06:51:21;97501.69;;;11.47;86.42
68476;BME280;55464;48.266;14.188;2023-04-29T06:53:46;97496.19;;;11.47;86.18
68476;BME280;55464;48.266;14.188;2023-04-29T06:56:12;97506.13;;;11.51;86.38
68476;BME280;55464;48.266;14.188;2023-04-29T06:58:37;97508.16;;;11.54;86.30
68476;BME280;55464;48.266;14.188;2023-04-29T07:01:03;97507.75;;;11.52;86.29
68476;BME280;55464;48.266;14.188;2023-04-29T07:03:30;97492.31;;;11.51;86.39
68476;BME280;55464;48.266;14.188;2023-04-29T07:05:56;97502.75;;;11.58;86.30
68476;BME280;55464;48.266;14.188;2023-04-29T07:08:21;97498.00;;;11.59;86.22
68476;BME280;55464;48.266;14.188;2023-04-29T07:10:54;97504.34;;;11.59;85.96
68476;BME280;55464;48.266;14.188;2023-04-29T07:13:20;97509.13;;;11.62;86.24
68476;BME280;55464;48.266;14.188;2023-04-29T07:15:46;97514.38;;;11.67;86.37
68476;BME280;55464;48.266;14.188;2023-04-29T07:18:11;97517.22;;;11.71;86.76
68476;BME280;55464;48.266;14.188;2023-04-29T07:20:37;97510.47;;;11.68;86.50
68476;BME280;55464;48.266;14.188;2023-04-29T07:23:02;97520.09;;;11.75;86.47
68476;BME280;55464;48.266;14.188;2023-04-29T07:25:28;97521.16;;;11.70;86.81
68476;BME280;55464;48.266;14.188;2023-04-29T07:27:54;97509.31;;;11.69;86.49
68476;BME280;55464;48.266;14.188;2023-04-29T07:30:20;97521.41;;;11.81;86.92
68476;BME280;55464;48.266;14.188;2023-04-29T07:32:45;97516.59;;;11.78;86.51
68476;BME280;55464;48.266;14.188;2023-04-29T07:35:11;97520.25;;;11.82;86.40
68476;BME280;55464;48.266;14.188;2023-04-29T07:37:36;97521.94;;;11.86;85.84
68476;BME280;55464;48.266;14.188;2023-04-29T07:40:02;97525.13;;;11.88;85.90
68476;BME280;55464;48.266;14.188;2023-04-29T07:42:27;97527.19;;;11.91;85.85
68476;BME280;55464;48.266;14.188;2023-04-29T07:44:52;97523.53;;;11.87;86.20
68476;BME280;55464;48.266;14.188;2023-04-29T07:47:18;97519.25;;;11.90;86.16
68476;BME280;55464;48.266;14.188;2023-04-29T07:49:43;97535.56;;;11.95;86.64
68476;BME280;55464;48.266;14.188;2023-04-29T07:52:09;97521.84;;;11.99;86.58
68476;BME280;55464;48.266;14.188;2023-04-29T07:54:35;97527.97;;;12.08;86.15
68476;BME280;55464;48.266;14.188;2023-04-29T07:57:01;97527.31;;;12.15;85.17
68476;BME280;55464;48.266;14.188;2023-04-29T07:59:28;97526.25;;;12.19;85.06
68476;BME280;55464;48.266;14.188;2023-04-29T08:01:53;97532.72;;;12.27;85.11
68476;BME280;55464;48.266;14.188;2023-04-29T08:04:19;97509.31;;;12.21;85.86
68476;BME280;55464;48.266;14.188;2023-04-29T08:06:45;97517.75;;;12.28;85.54
68476;BME280;55464;48.266;14.188;2023-04-29T08:09:10;97527.72;;;12.33;85.64
68476;BME280;55464;48.266;14.188;2023-04-29T08:11:36;97533.84;;;12.42;85.88
68476;BME280;55464;48.266;14.188;2023-04-29T08:14:02;97536.31;;;12.47;85.41
68476;BME280;55464;48.266;14.188;2023-04-29T08:16:27;97529.53;;;12.64;84.84
68476;BME280;55464;48.266;14.188;2023-04-29T08:18:53;97534.69;;;12.65;85.22
68476;BME280;55464;48.266;14.188;2023-04-29T08:21:19;97538.84;;;12.75;83.51
68476;BME280;55464;48.266;14.188;2023-04-29T08:23:44;97544.03;;;12.77;83.10
68476;BME280;55464;48.266;14.188;2023-04-29T08:26:10;97546.34;;;12.75;83.54
68476;BME280;55464;48.266;14.188;2023-04-29T08:28:37;97546.78;;;12.77;84.10
68476;BME280;55464;48.266;14.188;2023-04-29T08:31:03;97553.91;;;12.78;83.91
68476;BME280;55464;48.266;14.188;2023-04-29T08:33:34;97548.31;;;12.74;83.74
68476;BME280;55464;48.266;14.188;2023-04-29T08:35:59;97544.81;;;12.77;83.93
68476;BME280;55464;48.266;14.188;2023-04-29T08:38:27;97550.84;;;12.83;83.18
68476;BME280;55464;48.266;14.188;2023-04-29T08:40:53;97560.09;;;12.91;83.16
68476;BME280;55464;48.266;14.188;2023-04-29T08:43:19;97560.38;;;12.85;82.81
68476;BME280;55464;48.266;14.188;2023-04-29T08:45:45;97555.19;;;13.03;82.83
68476;BME280;55464;48.266;14.188;2023-04-29T08:48:12;97558.81;;;13.08;82.05
68476;BME280;55464;48.266;14.188;2023-04-29T08:50:40;97559.22;;;13.06;82.24
68476;BME280;55464;48.266;14.188;2023-04-29T08:53:11;97554.16;;;13.12;82.68
68476;BME280;55464;48.266;14.188;2023-04-29T08:55:45;97547.91;;;13.15;83.85
68476;BME280;55464;48.266;14.188;2023-04-29T08:58:12;97558.66;;;13.20;83.91
68476;BME280;55464;48.266;14.188;2023-04-29T09:00:39;97558.34;;;13.25;83.70
68476;BME280;55464;48.266;14.188;2023-04-29T09:03:24;97552.50;;;13.30;82.70
68476;BME280;55464;48.266;14.188;2023-04-29T09:05:53;97547.59;;;13.39;81.99
68476;BME280;55464;48.266;14.188;2023-04-29T09:08:20;97555.56;;;13.45;82.64
68476;BME280;55464;48.266;14.188;2023-04-29T09:10:46;97548.19;;;13.52;82.79
68476;BME280;55464;48.266;14.188;2023-04-29T09:13:41;97551.81;;;13.56;81.79
68476;BME280;55464;48.266;14.188;2023-04-29T09:16:13;97544.63;;;13.52;82.77
68476;BME280;55464;48.266;14.188;2023-04-29T09:18:46;97558.34;;;13.68;82.01
68476;BME280;55464;48.266;14.188;2023-04-29T09:21:19;97556.72;;;13.67;81.83
68476;BME280;55464;48.266;14.188;2023-04-29T09:23:46;97555.63;;;13.71;82.57
68476;BME280;55464;48.266;14.188;2023-04-29T09:26:12;97547.00;;;13.76;82.17
68476;BME280;55464;48.266;14.188;2023-04-29T09:28:38;97553.50;;;13.88;81.13
68476;BME280;55464;48.266;14.188;2023-04-29T09:31:09;97555.25;;;13.99;81.51
68476;BME280;55464;48.266;14.188;2023-04-29T09:33:52;97543.00;;;14.00;80.67
68476;BME280;55464;48.266;14.188;2023-04-29T09:36:41;97549.81;;;14.07;80.70
68476;BME280;55464;48.266;14.188;2023-04-29T09:39:10;97540.34;;;14.08;78.77
68476;BME280;55464;48.266;14.188;2023-04-29T09:44:18;97538.47;;;14.15;79.68
68476;BME280;55464;48.266;14.188;2023-04-29T09:46:56;97539.47;;;14.30;79.45
68476;BME280;55464;48.266;14.188;2023-04-29T09:49:25;97557.00;;;14.38;79.23
68476;BME280;55464;48.266;14.188;2023-04-29T09:51:56;97557.47;;;14.44;78.72
68476;BME280;55464;48.266;14.188;2023-04-29T09:54:28;97545.22;;;14.45;78.53
68476;BME280;55464;48.266;14.188;2023-04-29T09:56:54;97553.59;;;14.48;77.75
68476;BME280;55464;48.266;14.188;2023-04-29T09:59:21;97539.22;;;14.43;78.36
68476;BME280;55464;48.266;14.188;2023-04-29T10:01:52;97548.34;;;14.43;78.98
68476;BME280;55464;48.266;14.188;2023-04-29T10:04:19;97546.47;;;14.51;77.76
68476;BME280;55464;48.266;14.188;2023-04-29T10:06:48;97544.63;;;14.59;78.54
68476;BME280;55464;48.266;14.188;2023-04-29T10:09:15;97545.88;;;14.65;77.63
68476;BME280;55464;48.266;14.188;2023-04-29T10:11:41;97542.72;;;14.66;77.46
68476;BME280;55464;48.266;14.188;2023-04-29T10:14:11;97540.72;;;14.63;76.78
68476;BME280;55464;48.266;14.188;2023-04-29T10:19:33;97552.72;;;14.71;76.25
68476;BME280;55464;48.266;14.188;2023-04-29T10:22:04;97541.34;;;14.83;76.96
68476;BME280;55464;48.266;14.188;2023-04-29T10:24:34;97519.91;;;14.80;75.67
68476;BME280;55464;48.266;14.188;2023-04-29T10:27:01;97539.88;;;14.93;76.28
68476;BME280;55464;48.266;14.188;2023-04-29T10:29:33;97512.88;;;14.90;75.29
68476;BME280;55464;48.266;14.188;2023-04-29T10:31:59;97516.94;;;15.00;74.64
68476;BME280;55464;48.266;14.188;2023-04-29T10:34:26;97507.34;;;14.93;74.08
68476;BME280;55464;48.266;14.188;2023-04-29T10:36:52;97506.63;;;15.00;75.96
68476;BME280;55464;48.266;14.188;2023-04-29T10:39:26;97510.28;;;15.04;76.56
68476;BME280;55464;48.266;14.188;2023-04-29T10:41:55;97510.31;;;15.08;77.42
68476;BME280;55464;48.266;14.188;2023-04-29T10:44:20;97515.16;;;15.18;75.86
68476;BME280;55464;48.266;14.188;2023-04-29T10:46:48;97514.34;;;15.18;76.95
68476;BME280;55464;48.266;14.188;2023-04-29T10:49:13;97512.81;;;15.20;75.65
68476;BME280;55464;48.266;14.188;2023-04-29T10:51:41;97510.88;;;15.28;77.01
68476;BME280;55464;48.266;14.188;2023-04-29T10:54:17;97499.81;;;15.31;75.09
68476;BME280;55464;48.266;14.188;2023-04-29T10:56:50;97500.25;;;15.37;75.75
68476;BME280;55464;48.266;14.188;2023-04-29T11:02:01;97491.13;;;15.37;74.22
68476;BME280;55464;48.266;14.188;2023-04-29T11:04:26;97504.34;;;15.50;72.39
68476;BME280;55464;48.266;14.188;2023-04-29T11:06:55;97501.19;;;15.52;71.91
68476;BME280;55464;48.266;14.188;2023-04-29T11:09:26;97497.66;;;15.59;71.42
68476;BME280;55464;48.266;14.188;2023-04-29T11:14:28;97486.59;;;15.66;71.07
68476;BME280;55464;48.266;14.188;2023-04-29T11:16:56;97484.72;;;15.77;70.99
68476;BME280;55464;48.266;14.188;2023-04-29T11:19:24;97488.72;;;15.80;69.55
68476;BME280;55464;48.266;14.188;2023-04-29T11:22:06;97477.59;;;15.80;72.13
68476;BME280;55464;48.266;14.188;2023-04-29T11:24:33;97473.25;;;15.82;70.96
68476;BME280;55464;48.266;14.188;2023-04-29T11:27:01;97462.94;;;15.86;70.31
68476;BME280;55464;48.266;14.188;2023-04-29T11:29:30;97461.47;;;16.07;69.00
68476;BME280;55464;48.266;14.188;2023-04-29T11:32:00;97468.66;;;16.08;68.93
68476;BME280;55464;48.266;14.188;2023-04-29T11:34:25;97483.34;;;16.12;69.49
68476;BME280;55464;48.266;14.188;2023-04-29T11:36:52;97466.63;;;16.01;69.54
68476;BME280;55464;48.266;14.188;2023-04-29T11:39:17;97472.63;;;16.11;69.31
68476;BME280;55464;48.266;14.188;2023-04-29T11:41:43;97463.94;;;16.19;69.03
68476;BME280;55464;48.266;14.188;2023-04-29T11:44:08;97470.31;;;16.23;66.12
68476;BME280;55464;48.266;14.188;2023-04-29T11:46:35;97476.31;;;16.33;67.50
68476;BME280;55464;48.266;14.188;2023-04-29T11:49:01;97465.19;;;16.29;66.88
68476;BME280;55464;48.266;14.188;2023-04-29T11:51:26;97465.97;;;16.33;65.56
68476;BME280;55464;48.266;14.188;2023-04-29T11:53:53;97467.19;;;16.32;66.23
68476;BME280;55464;48.266;14.188;2023-04-29T11:56:21;97464.44;;;16.39;66.75
68476;BME280;55464;48.266;14.188;2023-04-29T11:58:53;97462.06;;;16.45;66.95
68476;BME280;55464;48.266;14.188;2023-04-29T12:01:20;97457.31;;;16.53;67.50
68476;BME280;55464;48.266;14.188;2023-04-29T12:03:47;97453.38;;;16.64;66.31
68476;BME280;55464;48.266;14.188;2023-04-29T12:06:13;97449.06;;;16.78;64.24
68476;BME280;55464;48.266;14.188;2023-04-29T12:08:39;97456.25;;;16.97;63.87
68476;BME280;55464;48.266;14.188;2023-04-29T12:11:05;97453.47;;;16.97;63.46
68476;BME280;55464;48.266;14.188;2023-04-29T12:13:32;97454.28;;;16.90;63.55
68476;BME280;55464;48.266;14.188;2023-04-29T12:16:00;97441.94;;;16.91;62.19
68476;BME280;55464;48.266;14.188;2023-04-29T12:18:27;97435.97;;;17.00;62.71
68476;BME280;55464;48.266;14.188;2023-04-29T12:20:53;97444.34;;;17.11;61.93
68476;BME280;55464;48.266;14.188;2023-04-29T12:23:21;97431.63;;;17.17;60.55
68476;BME280;55464;48.266;14.188;2023-04-29T12:25:51;97421.69;;;17.30;60.58
68476;BME280;55464;48.266;14.188;2023-04-29T12:28:17;97420.09;;;17.40;61.10
68476;BME280;55464;48.266;14.188;2023-04-29T12:30:44;97438.78;;;17.54;62.99
68476;BME280;55464;48.266;14.188;2023-04-29T12:33:18;97431.19;;;17.80;58.40
68476;BME280;55464;48.266;14.188;2023-04-29T12:35:49;97419.66;;;17.81;59.48
68476;BME280;55464;48.266;14.188;2023-04-29T12:38:19;97432.34;;;18.00;59.89
68476;BME280;55464;48.266;14.188;2023-04-29T12:40:45;97424.38;;;18.06;57.91
68476;BME280;55464;48.266;14.188;2023-04-29T12:43:10;97410.75;;;18.29;58.19
68476;BME280;55464;48.266;14.188;2023-04-29T12:45:37;97416.22;;;18.47;56.90
68476;BME280;55464;48.266;14.188;2023-04-29T12:48:03;97410.16;;;18.63;55.47
68476;BME280;55464;48.266;14.188;2023-04-29T12:50:34;97409.69;;;18.76;54.61
68476;BME280;55464;48.266;14.188;2023-04-29T12:53:01;97410.78;;;18.96;55.08
68476;BME280;55464;48.266;14.188;2023-04-29T12:55:26;97401.59;;;18.99;53.33
68476;BME280;55464;48.266;14.188;2023-04-29T12:57:52;97406.72;;;19.08;54.84
68476;BME280;55464;48.266;14.188;2023-04-29T13:00:18;97417.81;;;19.19;55.02
68476;BME280;55464;48.266;14.188;2023-04-29T13:02:45;97421.34;;;19.26;53.64
68476;BME280;55464;48.266;14.188;2023-04-29T13:05:10;97429.19;;;19.46;51.78
68476;BME280;55464;48.266;14.188;2023-04-29T13:07:36;97418.88;;;19.36;52.45
68476;BME280;55464;48.266;14.188;2023-04-29T13:10:03;97434.16;;;19.20;50.64